CheckWX is a tool to help pilots better visualize weather data.  It is not intended as a substitute for an official pre-flight weather briefing.

21:17:20 UTC

KCKZ METAR
Pennridge Airport
Perkasie, Pennsylvania, USA
Current

22 mins ago

KCKZ 262055Z AUTO 00000KT 10SM FEW060 SCT090 SCT120 22/22 A2992 RMK AO2 LTG DSNT NE AND W P0001
Observed
May-26 @ 20:55 UTC
Visibility
10 SM
Flight Rules
VFR
Cloud Levels
  • Few at 6,000' AGL
  • Scattered at 9,000' AGL
  • Scattered at 12,000' AGL
Temperature
22°C / 72°F
Dewpoint
22°C / 72°F
Humidity
100%
Altimeter
29.92" Hg
Pressure
1013.22 hPa
Current Rain
0.01"
Previous

42 mins ago

KCKZ 262035Z AUTO 21004KT 10SM BKN090 20/20 A2993 RMK AO2 P0001
Observed
May-26 @ 20:35 UTC
Wind
  • 210° at 4 KTS
Visibility
10 SM
Flight Rules
VFR
Cloud Levels
  • Broken at 9,000' AGL
Temperature
20°C / 68°F
Dewpoint
20°C / 68°F
Humidity
100%
Altimeter
29.93" Hg
Pressure
1013.52 hPa
Current Rain
0.01"
Previous

1 hour ago

KCKZ 262015Z AUTO 25008KT 10SM FEW033 SCT050 BKN090 22/22 A2995 RMK AO2 LTG DSNT NE-S P0001
Observed
May-26 @ 20:15 UTC
Wind
  • 250° at 8 KTS
Visibility
10 SM
Flight Rules
VFR
Cloud Levels
  • Few at 3,300' AGL
  • Scattered at 5,000' AGL
  • Broken at 9,000' AGL
Temperature
22°C / 72°F
Dewpoint
22°C / 72°F
Humidity
100%
Altimeter
29.95" Hg
Pressure
1014.22 hPa
Current Rain
0.01"